Rapid City Regional Airport
KRAP : now visible

Airfield :











YOU CAN JOIN US ON...

 
LOGIN :

Register | Disclaimer

   EN    FR    IT 

 









Legend :    VFR   Marginal VFR   IFR   Intensive IFR   Very Intensive IFR
Visi :
Ceiling :
>= 8 km
>= 3000ft
5 to 8 km
1000 to 3000 ft
1500m to 5 km
500 to 1000 ft
800 to 1500m
200 to 500 ft
< 800m
< 200 ft
Symbols :   Thunderstorms  Fog  Heavy snow  Heavy precipitations  Wind > 20 kt







- Airport Elevation : 3204 ft
- IATA code : RAP


KRAP - Rapid City Regional

CURRENT METAR :
  • 211652Z 23013G17KT 10SM BKN065 18/07 A2988 RMK AO2 SLP103 T01780067

EXPIRED METARs :
  • 211552Z 00000KT 10SM CLR 15/11 A2988 RMK AO2 SLP110 T01500106
  • 211452Z 31007KT 10SM CLR 14/11 A2988 RMK AO2 SLP103 T01440106 51020

TAF KRAP
Valid from the 21 at 17:00 until the 22 at 12:00 UTC


211636Z 2117/2212 30007KT P6SM BKN150
FM211900 31012G22KT P6SM SCT060
FM220100 29007KT P6SM FEW060
No reported NOTAMs for that airfield.



MET'MAP, your aeronautical weather chart ! - Copyright ORBIFLY December 2007 - Disclaimer

ORBIFLY MET'MAP TEAM :

Programming & Development : Alexandra Zaïnal
Concept & Development : Baudouin d'Aumeries
Co-Development & Prog : Marc-Olivier Méhu
Technical & hardware support : Manuel Goepfert

Contact : metmap@orbifly.com




SOURCES & CREDITS :

   NOAA       Earth
Advisory